St Petersburg Clearwater International Airport
KPIE : rendu visible

Aérodrome :











RETROUVEZ-NOUS SUR...

 
LOGIN :

S'inscrire | Disclaimer

   EN    FR    IT 

 









Légende :    VFR   VFR Marginal   IFR   IFR Intensif   IFR Très Intensif
Visi : 
Plafond : 
>= 8 km
>= 3000ft
5 à 8 km
1000 à 3000 ft
1500m à 5 km
500 à 1000 ft
800 à 1500m
200 à 500 ft
< 800m
< 200 ft
Symboles :   Orages  Brouillard  Fortes neiges  Fortes précipitations  Vent > 20 kt






- Altitude de l'aérodrome : 11 ft
- Code IATA : PIE


KPIE - St Petersburg Clearwater International

DERNIER METAR :
  • 172253Z 08015G21KT 10SM CLR 24/14 A3031 RMK AO2 SLP263 T02390144

METARs EXPIRÉS :
  • 172153Z 07014G20KT 10SM CLR 25/14 A3029 RMK AO2 SLP257 T02500144
  • 172053Z 09013G19KT 10SM CLR 26/14 A3028 RMK AO2 SLP254 T02610139 55009

TAF KPIE
Valide du 18 à 00h jusqu'au 19 à 00h UTC


172337Z 1800/1824 08012G19KT P6SM FEW040 SCT250
FM180600 09009KT P6SM FEW030 SCT250
FM181500 13011KT P6SM SCT040 BKN250
FM182100 17009KT P6SM SCT040 BKN250



MET'MAP, la Météo Aéronautique d'un coup d'oeil ! - Copyright ORBIFLY Décembre 2007 - Disclaimer

ORBIFLY MET'MAP TEAM :

Programmation & Développement : Alexandra Zaïnal
Sur une idée originale de : Baudouin d'Aumeries
Assistance à la programmation : Marc-Olivier Méhu
Soutien technique & logistique : Manuel Goepfert

Contact : metmap@orbifly.com




SOURCES & CREDITS :

   NOAA       Earth
Advisory